createdAt,value
2016-04-20T08:27:42.344Z,1027.3
2016-04-20T08:28:42.331Z,1027.27
2016-04-20T08:29:42.318Z,1027.25
2016-04-20T08:30:42.321Z,1027.27
2016-04-20T08:31:42.324Z,1027.23
2016-04-20T08:32:42.310Z,1027.24
2016-04-20T08:33:42.204Z,1027.24
2016-04-20T08:34:42.425Z,1027.22
2016-04-20T08:35:42.302Z,1027.26
2016-04-20T08:36:42.290Z,1027.28
2016-04-20T08:37:42.293Z,1027.29
2016-04-20T08:38:42.295Z,1027.3
2016-04-20T08:39:42.282Z,1027.29
2016-04-20T08:40:42.285Z,1027.29
2016-04-20T08:41:42.273Z,1027.33
2016-04-20T08:42:42.275Z,1027.32
2016-04-20T08:43:42.074Z,1027.3
2016-04-20T08:44:42.265Z,1027.34
2016-04-20T08:45:42.252Z,1027.31
2016-04-20T08:46:42.051Z,1027.32
2016-04-20T08:47:42.039Z,1027.42
2016-04-20T08:48:42.245Z,1027.35
2016-04-20T08:49:42.123Z,1027.37
2016-04-20T08:50:42.234Z,1027.39
2016-04-20T08:51:42.237Z,1027.37
2016-04-20T08:52:42.223Z,1027.38
2016-04-20T08:53:42.023Z,1027.32
2016-04-20T08:54:42.214Z,1027.33
2016-04-20T08:55:42.216Z,1027.3
2016-04-20T08:56:42.016Z,1027.33
2016-04-20T08:57:42.205Z,1027.32
2016-04-20T08:58:42.225Z,1027.3
2016-04-20T08:59:41.992Z,1027.31
2016-04-20T09:00:42.199Z,1027.26
2016-04-20T09:01:41.983Z,1027.24
2016-04-20T09:02:41.985Z,1027.28
2016-04-20T09:03:42.191Z,1027.23
2016-04-20T09:04:42.224Z,1027.34
2016-04-20T09:05:42.180Z,1027.32
2016-04-20T09:06:42.167Z,1027.3
2016-04-20T09:07:41.968Z,1027.28
2016-04-20T09:08:42.157Z,1027.36
2016-04-20T09:09:42.160Z,1027.39
2016-04-20T09:10:42.163Z,1027.36
2016-04-20T09:11:42.166Z,1027.38
2016-04-20T09:12:41.949Z,1027.41
2016-04-20T09:13:42.140Z,1027.4
2016-04-20T09:14:42.143Z,1027.4
2016-04-20T09:15:42.145Z,1027.44
2016-04-20T09:16:42.132Z,1027.44
2016-04-20T09:17:41.931Z,1027.47
2016-04-20T09:18:41.918Z,1027.48
2016-04-20T09:19:42.281Z,1027.44
2016-04-20T09:20:41.909Z,1027.46
2016-04-20T09:21:42.114Z,1027.48
2016-04-20T09:22:41.897Z,1027.49
2016-04-20T09:23:42.103Z,1027.5
2016-04-20T09:24:42.106Z,1027.51
2016-04-20T09:25:42.108Z,1027.5
2016-04-20T09:26:41.893Z,1027.53
2016-04-20T09:27:41.879Z,1027.51
2016-04-20T09:28:41.898Z,1027.52
2016-04-20T09:29:42.072Z,1027.49
2016-04-20T09:30:42.075Z,1027.52
2016-04-20T09:31:41.874Z,1027.5
2016-04-20T09:32:42.065Z,1027.51
2016-04-20T09:33:42.067Z,1027.51
2016-04-20T09:34:41.851Z,1027.54
2016-04-20T09:35:41.870Z,1027.55
2016-04-20T09:36:42.059Z,1027.55
2016-04-20T09:37:42.047Z,1027.51
2016-04-20T09:38:42.049Z,1027.49
2016-04-20T09:39:41.834Z,1027.51
2016-04-20T09:40:41.836Z,1027.49
2016-04-20T09:41:42.026Z,1027.49
2016-04-20T09:42:42.029Z,1027.45
2016-04-20T09:43:41.828Z,1027.35
2016-04-20T09:44:42.019Z,1027.36
2016-04-20T09:45:42.021Z,1027.35
2016-04-20T09:46:42.008Z,1027.36
2016-04-20T09:47:42.011Z,1027.35
2016-04-20T09:48:41.795Z,1027.36
2016-04-20T09:49:41.798Z,1027.36
2016-04-20T09:50:42.003Z,1027.3
2016-04-20T09:51:41.991Z,1027.31
2016-04-20T09:52:41.790Z,1027.35
2016-04-20T09:53:41.980Z,1027.34
2016-04-20T09:54:41.780Z,1027.38
2016-04-20T09:55:41.986Z,1027.33
2016-04-20T09:56:41.769Z,1027.38
2016-04-20T09:57:41.976Z,1027.34
2016-04-20T09:58:41.963Z,1027.29
2016-04-20T09:59:41.762Z,1027.34
2016-04-20T10:00:41.749Z,1027.36
2016-04-20T10:01:41.954Z,1027.36
2016-04-20T10:02:41.739Z,1027.37
2016-04-20T10:03:41.945Z,1027.36
2016-04-20T10:04:41.962Z,1027.38
2016-04-20T10:05:41.934Z,1027.37
2016-04-20T10:06:41.937Z,1027.37
2016-04-20T10:07:41.939Z,1027.33
2016-04-20T10:08:41.723Z,1027.31
2016-04-20T10:09:41.726Z,1027.3
2016-04-20T10:10:41.714Z,1027.29
2016-04-20T10:11:41.717Z,1027.29
2016-04-20T10:12:41.906Z,1027.27
2016-04-20T10:13:41.909Z,1027.26
2016-04-20T10:14:41.709Z,1027.28
2016-04-20T10:15:41.900Z,1027.21
2016-04-20T10:16:41.698Z,1027.23
2016-04-20T10:17:41.686Z,1027.22
2016-04-20T10:18:41.892Z,1027.17
2016-04-20T10:19:41.878Z,1027.18
2016-04-20T10:20:41.881Z,1027.18
2016-04-20T10:21:41.884Z,1027.15
2016-04-20T10:22:41.668Z,1027.23
2016-04-20T10:23:41.671Z,1027.23
2016-04-20T10:24:41.658Z,1027.19
2016-04-20T10:25:41.863Z,1027.2
2016-04-20T10:26:41.866Z,1027.21
2016-04-20T10:27:41.852Z,1027.18
2016-04-20T10:28:41.840Z,1027.17
2016-04-20T10:29:41.655Z,1027.14
2016-04-20T10:30:41.846Z,1027.16
2016-04-20T10:31:41.832Z,1027.14
2016-04-20T10:32:41.632Z,1027.13
2016-04-20T10:33:41.635Z,1027.12
2016-04-20T10:34:41.826Z,1027.14
2016-04-20T10:35:41.829Z,1027.1
2016-04-20T10:36:41.815Z,1027.11
2016-04-20T10:37:41.817Z,1027.07
2016-04-20T10:38:41.804Z,1027.09
2016-04-20T10:39:41.604Z,1027.08
2016-04-20T10:40:41.809Z,1027.04
2016-04-20T10:41:41.798Z,1027.04
2016-04-20T10:42:41.597Z,1027.04
2016-04-20T10:43:41.803Z,1027.03
2016-04-20T10:44:41.789Z,1027.03
2016-04-20T10:45:41.792Z,1027.03
2016-04-20T10:46:41.779Z,1027.06
2016-04-20T10:47:41.782Z,1027.05
2016-04-20T10:48:41.769Z,1027.07
2016-04-20T10:49:41.569Z,1027.06
2016-04-20T10:50:41.774Z,1027.01
2016-04-20T10:51:41.574Z,1026.99
2016-04-20T10:52:41.561Z,1026.98
2016-04-20T10:53:41.751Z,1027
2016-04-20T10:54:41.754Z,1026.97
2016-04-20T10:55:41.538Z,1026.98
2016-04-20T10:56:41.541Z,1026.97
2016-04-20T10:57:41.730Z,1026.97
2016-04-20T10:58:41.530Z,1026.96
2016-04-20T10:59:41.735Z,1026.95
2016-04-20T11:00:41.738Z,1026.93
2016-04-20T11:01:41.523Z,1026.92
2016-04-20T11:02:41.526Z,1026.88
2016-04-20T11:03:41.732Z,1026.88
2016-04-20T11:04:41.499Z,1026.86
2016-04-20T11:05:41.705Z,1026.86
2016-04-20T11:06:41.707Z,1026.84
2016-04-20T11:07:41.492Z,1026.87
2016-04-20T11:08:41.495Z,1026.88
2016-04-20T11:09:41.701Z,1026.84
2016-04-20T11:10:41.687Z,1026.84
2016-04-20T11:11:41.690Z,1026.84
2016-04-20T11:12:41.678Z,1026.83
2016-04-20T11:13:41.681Z,1026.81
2016-04-20T11:14:41.479Z,1026.82
2016-04-20T11:15:41.467Z,1026.82
2016-04-20T11:16:41.688Z,1026.82
2016-04-20T11:17:41.659Z,1026.82
2016-04-20T11:18:41.662Z,1026.84
2016-04-20T11:19:41.665Z,1026.84
2016-04-20T11:20:41.653Z,1026.84
2016-04-20T11:21:41.655Z,1026.84
2016-04-20T11:22:41.642Z,1026.81
2016-04-20T11:23:41.644Z,1026.8
2016-04-20T11:24:41.647Z,1026.8
2016-04-20T11:25:41.431Z,1026.77
2016-04-20T11:26:41.636Z,1026.84
2016-04-20T11:27:41.624Z,1026.82
2016-04-20T11:28:41.423Z,1026.77
2016-04-20T11:29:41.629Z,1026.81
2016-04-20T11:30:41.616Z,1026.8
2016-04-20T11:31:41.635Z,1026.79
2016-04-20T11:32:41.622Z,1026.73
2016-04-20T11:33:41.406Z,1026.76
2016-04-20T11:34:41.612Z,1026.71
2016-04-20T11:35:41.599Z,1026.71
2016-04-20T11:36:41.398Z,1026.65
2016-04-20T11:37:41.588Z,1026.63
2016-04-20T11:38:41.607Z,1026.58
2016-04-20T11:39:41.594Z,1026.55
2016-04-20T11:40:41.378Z,1026.52
2016-04-20T11:41:41.584Z,1026.52
2016-04-20T11:42:41.570Z,1026.48
2016-04-20T11:43:41.573Z,1026.5
2016-04-20T11:44:41.575Z,1026.51
2016-04-20T11:45:41.563Z,1026.57
2016-04-20T11:46:41.565Z,1026.52
2016-04-20T11:47:41.552Z,1026.5
2016-04-20T11:48:41.556Z,1026.56
2016-04-20T11:49:41.558Z,1026.56
2016-04-20T11:50:41.545Z,1026.56
2016-04-20T11:51:41.345Z,1026.56
2016-04-20T11:52:41.535Z,1026.56
2016-04-20T11:53:41.334Z,1026.56
2016-04-20T11:54:41.541Z,1026.57
2016-04-20T11:55:41.527Z,1026.51
2016-04-20T11:56:41.530Z,1026.47
2016-04-20T11:57:41.516Z,1026.46
2016-04-20T11:58:41.316Z,1026.43
2016-04-20T11:59:41.508Z,1026.44
2016-04-20T12:00:41.510Z,1026.48
2016-04-20T12:01:41.513Z,1026.46
2016-04-20T12:02:41.499Z,1026.45
2016-04-20T12:03:41.501Z,1026.46
2016-04-20T12:04:41.504Z,1026.43
2016-04-20T12:05:41.352Z,1026.43
2016-04-20T12:06:41.494Z,1026.42
2016-04-20T12:07:41.482Z,1026.43
2016-04-20T12:08:41.484Z,1026.46
2016-04-20T12:09:41.487Z,1026.4
2016-04-20T12:10:41.473Z,1026.34
2016-04-20T12:11:41.476Z,1026.35
2016-04-20T12:12:41.465Z,1026.28
2016-04-20T12:13:41.467Z,1026.3
2016-04-20T12:14:41.470Z,1026.33
2016-04-20T12:15:41.456Z,1026.35
2016-04-20T12:16:41.255Z,1026.34
2016-04-20T12:17:41.462Z,1026.31
2016-04-20T12:18:41.449Z,1026.29
2016-04-20T12:19:41.451Z,1026.34
2016-04-20T12:20:41.251Z,1026.32
2016-04-20T12:21:41.253Z,1026.32
2016-04-20T12:22:41.428Z,1026.35
2016-04-20T12:23:41.431Z,1026.34
2016-04-20T12:24:41.449Z,1026.32
2016-04-20T12:25:41.233Z,1026.27
2016-04-20T12:26:41.422Z,1026.31
2016-04-20T12:27:41.425Z,1026.28
2016-04-20T12:28:41.210Z,1026.28
2016-04-20T12:29:41.197Z,1026.27
2016-04-20T12:30:41.402Z,1026.29
2016-04-20T12:31:41.203Z,1026.26
2016-04-20T12:32:41.392Z,1026.25
2016-04-20T12:33:41.191Z,1026.3
2016-04-20T12:34:41.413Z,1026.24
2016-04-20T12:35:41.197Z,1026.27
2016-04-20T12:36:41.388Z,1026.24
2016-04-20T12:37:41.391Z,1026.15
2016-04-20T12:38:41.174Z,1026.2
2016-04-20T12:39:41.380Z,1026.12
2016-04-20T12:40:41.165Z,1026.15
2016-04-20T12:41:41.371Z,1026.18
2016-04-20T12:42:41.170Z,1026.14
2016-04-20T12:43:41.359Z,1026.14
2016-04-20T12:44:41.362Z,1026.16
2016-04-20T12:45:41.365Z,1026.15
2016-04-20T12:46:41.149Z,1026.18
2016-04-20T12:47:41.355Z,1026.16
2016-04-20T12:48:41.139Z,1026.2
2016-04-20T12:49:41.142Z,1026.23
2016-04-20T12:50:41.144Z,1026.17
2016-04-20T12:51:41.334Z,1026.18
2016-04-20T12:52:41.134Z,1026.16
2016-04-20T12:53:41.339Z,1026.15
2016-04-20T12:54:41.123Z,1026.15
2016-04-20T12:55:41.111Z,1026.14
2016-04-20T12:56:41.114Z,1026.13
2016-04-20T12:57:41.319Z,1026.1
2016-04-20T12:58:41.103Z,1026.1
2016-04-20T12:59:41.309Z,1026.11
2016-04-20T13:00:41.311Z,1026.11
2016-04-20T13:01:41.298Z,1026.11
2016-04-20T13:02:41.301Z,1026.04
2016-04-20T13:03:41.086Z,1026.06
2016-04-20T13:04:41.291Z,1026.05
2016-04-20T13:05:41.325Z,1026.03
2016-04-20T13:06:41.280Z,1026.06
2016-04-20T13:07:41.283Z,1026.03
2016-04-20T13:08:41.271Z,1026.06
2016-04-20T13:09:41.274Z,1026.03
2016-04-20T13:10:41.276Z,1025.97
2016-04-20T13:11:41.059Z,1025.98
2016-04-20T13:12:41.062Z,1025.96
2016-04-20T13:13:41.253Z,1026
2016-04-20T13:14:41.256Z,1025.97
2016-04-20T13:15:41.071Z,1025.96
2016-04-20T13:16:41.245Z,1025.99
2016-04-20T13:17:41.248Z,1026
2016-04-20T13:18:41.235Z,1025.97
2016-04-20T13:19:41.237Z,1025.97
2016-04-20T13:20:41.100Z,1025.94
2016-04-20T13:21:41.228Z,1025.96
2016-04-20T13:22:41.230Z,1026
2016-04-20T13:23:41.030Z,1025.96
2016-04-20T13:24:41.219Z,1026.01
2016-04-20T13:25:41.019Z,1026.07
2016-04-20T13:26:41.209Z,1026.03
2016-04-20T13:27:41.212Z,1025.99
2016-04-20T13:28:41.200Z,1026.01
2016-04-20T13:29:41.202Z,1026.02
2016-04-20T13:30:41.002Z,1025.99
2016-04-20T13:31:40.988Z,1025.93
2016-04-20T13:32:41.195Z,1025.91
2016-04-20T13:33:41.197Z,1025.91
2016-04-20T13:34:41.185Z,1025.9
2016-04-20T13:35:41.187Z,1025.89
2016-04-20T13:36:40.971Z,1025.87
2016-04-20T13:37:40.973Z,1025.85
2016-04-20T13:38:41.180Z,1025.84
2016-04-20T13:39:40.963Z,1025.82
2016-04-20T13:40:40.966Z,1025.87
2016-04-20T13:41:41.157Z,1025.86
2016-04-20T13:42:41.159Z,1025.88
2016-04-20T13:43:40.958Z,1025.88
2016-04-20T13:44:40.946Z,1025.84
2016-04-20T13:45:41.151Z,1025.87
2016-04-20T13:46:41.154Z,1025.87
2016-04-20T13:47:41.140Z,1025.89
2016-04-20T13:48:40.941Z,1025.9
2016-04-20T13:49:40.928Z,1025.93
2016-04-20T13:50:40.931Z,1025.88
2016-04-20T13:51:40.933Z,1025.86
2016-04-20T13:52:40.921Z,1025.87
2016-04-20T13:53:41.126Z,1025.87
2016-04-20T13:54:40.909Z,1025.87
2016-04-20T13:55:41.116Z,1025.85
2016-04-20T13:56:40.915Z,1025.84
2016-04-20T13:57:40.917Z,1025.82
2016-04-20T13:58:41.109Z,1025.8
2016-04-20T13:59:41.111Z,1025.83
2016-04-20T14:00:40.911Z,1025.77
2016-04-20T14:01:40.898Z,1025.8
2016-04-20T14:02:40.900Z,1025.82
2016-04-20T14:03:40.888Z,1025.81
2016-04-20T14:04:41.093Z,1025.84
2016-04-20T14:05:41.080Z,1025.81
2016-04-20T14:06:41.082Z,1025.78
2016-04-20T14:07:41.086Z,1025.82
2016-04-20T14:08:41.072Z,1025.79
2016-04-20T14:09:40.872Z,1025.8
2016-04-20T14:10:40.875Z,1025.78
2016-04-20T14:11:41.065Z,1025.78
2016-04-20T14:12:40.865Z,1025.77
2016-04-20T14:13:40.852Z,1025.74
2016-04-20T14:14:40.855Z,1025.76
2016-04-20T14:15:40.857Z,1025.76
2016-04-20T14:16:41.047Z,1025.79
2016-04-20T14:17:40.846Z,1025.79
2016-04-20T14:18:40.834Z,1025.78
2016-04-20T14:19:41.040Z,1025.82
2016-04-20T14:20:40.840Z,1025.79
2016-04-20T14:21:40.826Z,1025.76
2016-04-20T14:22:41.049Z,1025.73
2016-04-20T14:23:40.817Z,1025.75
2016-04-20T14:24:41.023Z,1025.76
2016-04-20T14:25:41.026Z,1025.75
2016-04-20T14:26:40.826Z,1025.72
2016-04-20T14:27:40.812Z,1025.74
2016-04-20T14:28:40.815Z,1025.72
2016-04-20T14:29:41.037Z,1025.7
2016-04-20T14:30:41.008Z,1025.69
2016-04-20T14:31:40.807Z,1025.67
2016-04-20T14:32:40.997Z,1025.64
2016-04-20T14:33:40.797Z,1025.68
2016-04-20T14:34:41.003Z,1025.71
2016-04-20T14:35:40.787Z,1025.73
2016-04-20T14:36:40.992Z,1025.67
2016-04-20T14:37:40.776Z,1025.63
2016-04-20T14:38:40.983Z,1025.63
2016-04-20T14:39:40.986Z,1025.59
2016-04-20T14:40:40.972Z,1025.63
2016-04-20T14:41:40.772Z,1025.67
2016-04-20T14:42:40.775Z,1025.65
2016-04-20T14:43:40.777Z,1025.68
2016-04-20T14:44:40.967Z,1025.67
2016-04-20T14:45:40.955Z,1025.64
2016-04-20T14:46:40.958Z,1025.6
2016-04-20T14:47:40.960Z,1025.64
2016-04-20T14:48:40.963Z,1025.61
2016-04-20T14:49:40.950Z,1025.64
2016-04-20T14:50:40.952Z,1025.61
2016-04-20T14:51:40.939Z,1025.61
2016-04-20T14:52:40.738Z,1025.62
2016-04-20T14:53:40.944Z,1025.6
2016-04-20T14:54:40.932Z,1025.62
2016-04-20T14:55:40.935Z,1025.63
2016-04-20T14:56:40.937Z,1025.6
2016-04-20T14:57:40.721Z,1025.6
2016-04-20T14:58:40.927Z,1025.64
2016-04-20T14:59:40.915Z,1025.62
2016-04-20T15:00:40.917Z,1025.6
2016-04-20T15:01:40.920Z,1025.6
2016-04-20T15:02:40.718Z,1025.62
2016-04-20T15:03:40.706Z,1025.6
2016-04-20T15:04:40.692Z,1025.61
2016-04-20T15:05:40.695Z,1025.61
2016-04-20T15:06:40.698Z,1025.59
2016-04-20T15:07:40.701Z,1025.55
2016-04-20T15:08:40.704Z,1025.55
2016-04-20T15:09:40.895Z,1025.58
2016-04-20T15:10:40.881Z,1025.53
2016-04-20T15:11:40.884Z,1025.54
2016-04-20T15:12:40.870Z,1025.54
2016-04-20T15:13:40.873Z,1025.5
2016-04-20T15:14:40.875Z,1025.49
2016-04-20T15:15:40.660Z,1025.49
2016-04-20T15:16:40.866Z,1025.46
2016-04-20T15:17:40.868Z,1025.48
2016-04-20T15:18:40.871Z,1025.5
2016-04-20T15:19:40.655Z,1025.49
2016-04-20T15:20:40.861Z,1025.46
2016-04-20T15:21:40.848Z,1025.47
2016-04-20T15:22:40.851Z,1025.45
2016-04-20T15:23:40.650Z,1025.43
2016-04-20T15:24:40.637Z,1025.41
2016-04-20T15:25:40.843Z,1025.4
2016-04-20T15:26:40.643Z,1025.4
2016-04-20T15:27:40.832Z,1025.4
2016-04-20T15:28:40.633Z,1025.38
2016-04-20T15:29:40.838Z,1025.38
2016-04-20T15:30:40.826Z,1025.36
2016-04-20T15:31:40.625Z,1025.36
2016-04-20T15:32:40.628Z,1025.35
2016-04-20T15:33:40.818Z,1025.36
2016-04-20T15:34:40.617Z,1025.35
2016-04-20T15:35:40.620Z,1025.33
2016-04-20T15:36:40.814Z,1025.39
2016-04-20T15:37:40.614Z,1025.36
2016-04-20T15:38:40.602Z,1025.42
2016-04-20T15:39:40.604Z,1025.35
2016-04-20T15:40:40.811Z,1025.36
2016-04-20T15:41:40.813Z,1025.35
2016-04-20T15:42:40.597Z,1025.33
2016-04-20T15:43:40.787Z,1025.33
2016-04-20T15:44:40.790Z,1025.31
2016-04-20T15:45:40.589Z,1025.3
2016-04-20T15:46:40.780Z,1025.29
2016-04-20T15:47:40.783Z,1025.28
2016-04-20T15:48:40.786Z,1025.29
2016-04-20T15:49:40.569Z,1025.26
2016-04-20T15:50:40.775Z,1025.3
2016-04-20T15:51:40.902Z,1025.29
2016-04-20T15:52:40.561Z,1025.24
2016-04-20T15:53:40.768Z,1025.28
2016-04-20T15:54:40.754Z,1025.23
2016-04-20T15:55:40.757Z,1025.26
2016-04-20T15:56:40.759Z,1025.21
2016-04-20T15:57:40.543Z,1025.22
2016-04-20T15:58:40.786Z,1025.21
2016-04-20T15:59:40.830Z,1025.19
2016-04-20T16:00:40.657Z,1025.15
2016-04-20T16:01:40.904Z,1025.15
2016-04-20T16:02:40.760Z,1025.11
2016-04-20T16:03:40.958Z,1025.14
2016-04-20T16:04:40.764Z,1025.05
2016-04-20T16:06:56.660Z,1025.11
2016-04-20T16:07:56.675Z,1025.07
2016-04-20T16:08:56.886Z,1025.03
2016-04-20T16:09:56.677Z,1025.06
2016-04-20T16:10:56.684Z,1025.04
2016-04-20T16:11:56.677Z,1025.03
2016-04-20T16:12:56.886Z,1025.04
2016-04-20T16:13:56.891Z,1025.02
2016-04-20T16:14:56.896Z,1025
2016-04-20T16:15:56.885Z,1025
2016-04-20T16:16:56.888Z,1025.02
2016-04-20T16:17:56.690Z,1025
2016-04-20T16:18:56.882Z,1024.96
2016-04-20T16:19:56.885Z,1024.97
2016-04-20T16:20:56.670Z,1024.95
2016-04-20T16:21:56.673Z,1024.98
2016-04-20T16:22:56.880Z,1024.96
2016-04-20T16:23:56.663Z,1024.94
2016-04-20T16:24:56.885Z,1024.96
2016-04-20T16:25:56.873Z,1024.93
2016-04-20T16:26:56.657Z,1024.93
2016-04-20T16:27:56.863Z,1024.92
2016-04-20T16:28:56.866Z,1024.87
2016-04-20T16:29:56.853Z,1024.87
2016-04-20T16:30:56.653Z,1024.9
2016-04-20T16:31:56.858Z,1024.85
2016-04-20T16:32:56.658Z,1024.85
2016-04-20T16:33:56.848Z,1024.84
2016-04-20T16:34:56.851Z,1024.81
2016-04-20T16:35:56.838Z,1024.81
2016-04-20T16:36:56.637Z,1024.78
2016-04-20T16:37:56.843Z,1024.77
2016-04-20T16:38:56.846Z,1024.77
2016-04-20T16:39:56.833Z,1024.75
2016-04-20T16:40:56.835Z,1024.72
2016-04-20T16:41:56.823Z,1024.7
2016-04-20T16:42:56.826Z,1024.75
2016-04-20T16:43:56.828Z,1024.77
2016-04-20T16:44:56.815Z,1024.8
2016-04-20T16:45:56.615Z,1024.77
2016-04-20T16:46:56.820Z,1024.79
2016-04-20T16:47:56.604Z,1024.75
2016-04-20T16:48:56.607Z,1024.77
2016-04-20T16:49:56.814Z,1024.76
2016-04-20T16:50:56.801Z,1024.75
2016-04-20T16:51:56.803Z,1024.78
2016-04-20T16:52:56.603Z,1024.79
2016-04-20T16:53:56.792Z,1024.79
2016-04-20T16:54:56.592Z,1024.78
2016-04-20T16:55:56.798Z,1024.76
2016-04-20T16:56:56.785Z,1024.74
2016-04-20T16:57:56.585Z,1024.77
2016-04-20T16:58:56.791Z,1024.79
2016-04-20T16:59:56.778Z,1024.79
2016-04-20T17:00:56.577Z,1024.77
2016-04-20T17:01:56.783Z,1024.73
2016-04-20T17:02:56.785Z,1024.74
2016-04-20T17:03:56.569Z,1024.8
2016-04-20T17:04:56.572Z,1024.74
2016-04-20T17:05:56.763Z,1024.75
2016-04-20T17:06:56.562Z,1024.7
2016-04-20T17:07:56.768Z,1024.7
2016-04-20T17:08:56.771Z,1024.67
2016-04-20T17:09:56.757Z,1024.71
2016-04-20T17:10:56.760Z,1024.66
2016-04-20T17:11:56.560Z,1024.72
2016-04-20T17:12:56.547Z,1024.73
2016-04-20T17:13:56.753Z,1024.75
2016-04-20T17:14:56.740Z,1024.77
2016-04-20T17:15:56.540Z,1024.75
2016-04-20T17:16:56.762Z,1024.7
2016-04-20T17:17:56.764Z,1024.73
2016-04-20T17:18:56.750Z,1024.7
2016-04-20T17:19:56.737Z,1024.72
2016-04-20T17:20:56.725Z,1024.63
2016-04-20T17:21:56.728Z,1024.66
2016-04-20T17:22:56.528Z,1024.67
2016-04-20T17:23:56.733Z,1024.65
2016-04-20T17:24:56.720Z,1024.62
2016-04-20T17:25:56.520Z,1024.65
2016-04-20T17:26:56.725Z,1024.65
2016-04-20T17:27:56.524Z,1024.63
2016-04-20T17:28:56.714Z,1024.63
2016-04-20T17:29:56.703Z,1024.64
2016-04-20T17:30:56.502Z,1024.62
2016-04-20T17:31:56.707Z,1024.67
2016-04-20T17:32:56.695Z,1024.62
2016-04-20T17:33:56.494Z,1024.65
2016-04-20T17:34:56.497Z,1024.63
2016-04-20T17:35:56.500Z,1024.62
2016-04-20T17:36:56.690Z,1024.61
2016-04-20T17:37:56.693Z,1024.57
2016-04-20T17:38:56.476Z,1024.62
2016-04-20T17:39:56.698Z,1024.6
2016-04-20T17:40:56.482Z,1024.59
2016-04-20T17:41:56.469Z,1024.58
2016-04-20T17:42:56.472Z,1024.56
2016-04-20T17:43:56.474Z,1024.59
2016-04-20T17:44:56.477Z,1024.65
2016-04-20T17:45:56.480Z,1024.61
2016-04-20T17:46:56.670Z,1024.59
2016-04-20T17:47:56.657Z,1024.58
2016-04-20T17:48:56.659Z,1024.56
2016-04-20T17:49:56.460Z,1024.57
2016-04-20T17:50:56.665Z,1024.56
2016-04-20T17:51:56.465Z,1024.56
2016-04-20T17:52:56.654Z,1024.57
2016-04-20T17:53:59.757Z,1024.56
2016-04-20T17:54:56.651Z,1024.57
2016-04-20T17:55:56.653Z,1024.57
2016-04-20T17:56:56.640Z,1024.6
2016-04-20T17:57:56.643Z,1024.6
2016-04-20T17:58:56.645Z,1024.61
2016-04-20T17:59:56.445Z,1024.63
2016-04-20T18:00:56.431Z,1024.62
2016-04-20T18:01:56.434Z,1024.66
2016-04-20T18:02:56.625Z,1024.62
2016-04-20T18:03:56.424Z,1024.63
2016-04-20T18:04:56.631Z,1024.63
2016-04-20T18:05:56.617Z,1024.66
2016-04-20T18:06:56.431Z,1024.65
2016-04-20T18:07:56.402Z,1024.64
2016-04-20T18:08:56.609Z,1024.64
2016-04-20T18:09:56.408Z,1024.65
2016-04-20T18:10:56.613Z,1024.64
2016-04-20T18:11:56.398Z,1024.6
2016-04-20T18:12:56.603Z,1024.63
2016-04-20T18:13:56.605Z,1024.57
2016-04-20T18:14:56.592Z,1024.6
2016-04-20T18:15:56.392Z,1024.57
2016-04-20T18:16:56.395Z,1024.54
2016-04-20T18:17:56.590Z,1024.52
2016-04-20T18:18:56.592Z,1024.56
2016-04-20T18:19:56.578Z,1024.52
2016-04-20T18:20:56.379Z,1024.54
2016-04-20T18:21:56.589Z,1024.52
2016-04-20T18:22:56.576Z,1024.52
2016-04-20T18:23:56.361Z,1024.48
2016-04-20T18:24:56.566Z,1024.51
2016-04-20T18:25:56.568Z,1024.49
2016-04-20T18:26:56.572Z,1024.53
2016-04-20T18:27:56.558Z,1024.55
2016-04-20T18:28:56.561Z,1024.52
2016-04-20T18:29:56.361Z,1024.52
2016-04-20T18:30:56.550Z,1024.53
2016-04-20T18:31:56.553Z,1024.59
2016-04-20T18:32:56.353Z,1024.59
2016-04-20T18:33:56.543Z,1024.58
2016-04-20T18:34:56.343Z,1024.57
2016-04-20T18:35:56.346Z,1024.57
2016-04-20T18:36:56.349Z,1024.58
2016-04-20T18:37:56.538Z,1024.58
2016-04-20T18:38:56.338Z,1024.59
2016-04-20T18:39:56.529Z,1024.59
2016-04-20T18:40:56.328Z,1024.55
2016-04-20T18:41:56.534Z,1024.6
2016-04-20T18:42:56.333Z,1024.56
2016-04-20T18:43:56.320Z,1024.57
2016-04-20T18:44:56.510Z,1024.58
2016-04-20T18:45:56.309Z,1024.55
2016-04-20T18:46:56.516Z,1024.54
2016-04-20T18:47:56.518Z,1024.54
2016-04-20T18:48:56.506Z,1024.59
2016-04-20T18:49:56.305Z,1024.6
2016-04-20T18:50:56.308Z,1024.59
2016-04-20T18:51:56.497Z,1024.63
2016-04-20T18:52:56.501Z,1024.62
2016-04-20T18:53:56.487Z,1024.59
2016-04-20T18:54:56.287Z,1024.6
2016-04-20T18:55:56.275Z,1024.58
2016-04-20T18:56:56.480Z,1024.6
2016-04-20T18:57:56.483Z,1024.62
2016-04-20T18:58:56.470Z,1024.6
2016-04-20T18:59:56.269Z,1024.62
2016-04-20T19:00:56.476Z,1024.62
2016-04-20T19:01:56.275Z,1024.63
2016-04-20T19:02:56.465Z,1024.57
2016-04-20T19:03:56.468Z,1024.6
2016-04-20T19:04:56.252Z,1024.6
2016-04-20T19:05:56.458Z,1024.58
2016-04-20T19:06:56.258Z,1024.59
2016-04-20T19:07:56.243Z,1024.59
2016-04-20T19:08:56.246Z,1024.6
2016-04-20T19:09:56.452Z,1024.59
2016-04-20T19:10:56.237Z,1024.6
2016-04-20T19:11:56.442Z,1024.55
2016-04-20T19:12:56.446Z,1024.54
2016-04-20T19:13:56.432Z,1024.55
2016-04-20T19:14:56.435Z,1024.52
2016-04-20T19:15:56.438Z,1024.52
2016-04-20T19:16:56.424Z,1024.46
2016-04-20T19:17:56.426Z,1024.48
2016-04-20T19:18:56.414Z,1024.45
2016-04-20T19:19:56.214Z,1024.47
2016-04-20T19:20:56.201Z,1024.45
2016-04-20T19:21:56.407Z,1024.46
2016-04-20T19:22:56.206Z,1024.54
2016-04-20T19:23:56.412Z,1024.49
2016-04-20T19:24:56.399Z,1024.51
2016-04-20T19:25:56.402Z,1024.51
2016-04-20T19:26:56.389Z,1024.54
2016-04-20T19:27:56.392Z,1024.52
2016-04-20T19:28:56.175Z,1024.54
2016-04-20T19:29:56.194Z,1024.51
2016-04-20T19:30:56.181Z,1024.58
2016-04-20T19:31:56.168Z,1024.58
2016-04-20T19:32:56.375Z,1024.57
2016-04-20T19:33:56.377Z,1024.63
2016-04-20T19:34:56.363Z,1024.6
2016-04-20T19:35:56.366Z,1024.64
2016-04-20T19:36:56.150Z,1024.65
2016-04-20T19:37:56.387Z,1024.63
2016-04-20T19:38:56.156Z,1024.64
2016-04-20T19:39:56.143Z,1024.63
2016-04-20T19:40:56.349Z,1024.6
2016-04-20T19:41:56.149Z,1024.57
2016-04-20T19:42:56.338Z,1024.55
2016-04-20T19:43:56.138Z,1024.54
2016-04-20T19:44:56.343Z,1024.56
2016-04-20T19:45:56.127Z,1024.54
2016-04-20T19:46:56.334Z,1024.51
2016-04-20T19:47:56.321Z,1024.53
2016-04-20T19:48:56.120Z,1024.56
2016-04-20T19:49:56.123Z,1024.56
2016-04-20T19:50:56.313Z,1024.52
2016-04-20T19:51:56.315Z,1024.54
2016-04-20T19:52:56.318Z,1024.54
2016-04-20T19:53:56.117Z,1024.56
2016-04-20T19:54:56.105Z,1024.52
2016-04-20T19:55:56.295Z,1024.55
2016-04-20T19:56:56.298Z,1024.54
2016-04-20T19:57:56.097Z,1024.56
2016-04-20T19:58:56.084Z,1024.55
2016-04-20T19:59:56.290Z,1024.57
2016-04-20T20:00:56.278Z,1024.57
2016-04-20T20:01:56.077Z,1024.5
2016-04-20T20:02:56.080Z,1024.55
2016-04-20T20:03:56.285Z,1024.51
2016-04-20T20:04:56.273Z,1024.5
2016-04-20T20:05:56.088Z,1024.5
2016-04-20T20:06:56.263Z,1024.51
2016-04-20T20:07:56.265Z,1024.48
2016-04-20T20:08:56.049Z,1024.5
2016-04-20T20:09:56.051Z,1024.47
2016-04-20T20:10:56.257Z,1024.44
2016-04-20T20:11:56.245Z,1024.49
2016-04-20T20:12:56.043Z,1024.49
2016-04-20T20:13:56.031Z,1024.5
2016-04-20T20:14:56.237Z,1024.48
2016-04-20T20:15:56.240Z,1024.52
2016-04-20T20:16:56.040Z,1024.47
2016-04-20T20:17:56.026Z,1024.51
2016-04-20T20:18:56.232Z,1024.49
2016-04-20T20:19:56.032Z,1024.53
2016-04-20T20:20:56.221Z,1024.51
2016-04-20T20:21:56.015Z,1024.51
2016-04-20T20:22:56.214Z,1024.49
2016-04-20T20:23:56.201Z,1024.48
2016-04-20T20:24:56.203Z,1024.48
2016-04-20T20:25:56.206Z,1024.45
2016-04-20T20:26:55.989Z,1024.47
2016-04-20T20:27:56.197Z,1024.43
2016-04-20T20:28:55.995Z,1024.46
2016-04-20T20:29:56.185Z,1024.42
2016-04-20T20:30:56.189Z,1024.43
2016-04-20T20:31:55.972Z,1024.44
2016-04-20T20:32:56.178Z,1024.43
2016-04-20T20:33:56.180Z,1024.44
2016-04-20T20:34:56.168Z,1024.42
2016-04-20T20:35:55.968Z,1024.43
2016-04-20T20:36:55.954Z,1024.39